createdAt,value
2019-04-01T00:00:30.643Z,102368.75
2019-04-01T00:02:32.026Z,102365.87
2019-04-01T00:04:33.383Z,102363.72
2019-04-01T00:06:34.774Z,102364.25
2019-04-01T00:08:36.201Z,102365.33
2019-04-01T00:10:37.564Z,102367.72
2019-04-01T00:12:38.957Z,102368.22
2019-04-01T00:14:40.323Z,102366.45
2019-04-01T00:16:41.734Z,102359.19
2019-04-01T00:18:43.109Z,102370.91
2019-04-01T00:20:44.480Z,102366.97
2019-04-01T00:22:45.984Z,102368.28
2019-04-01T00:24:47.440Z,102367.22
2019-04-01T00:26:48.804Z,102368.50
2019-04-01T00:28:50.212Z,102376.78
2019-04-01T00:30:51.596Z,102374.43
2019-04-01T00:32:52.957Z,102369.91
2019-04-01T00:34:54.351Z,102374.38
2019-04-01T00:36:55.731Z,102372.30
2019-04-01T00:38:57.083Z,102376.05
2019-04-01T00:40:58.497Z,102375.00
2019-04-01T00:43:18.372Z,102376.09
2019-04-01T00:45:21.634Z,102372.06
2019-04-01T00:47:23.010Z,102377.20
2019-04-01T00:49:24.408Z,102374.72
2019-04-01T00:51:25.782Z,102374.86
2019-04-01T00:53:27.184Z,102373.73
2019-04-01T00:55:28.545Z,102372.63
2019-04-01T00:57:29.953Z,102374.13
2019-04-01T00:59:31.566Z,102371.89
2019-04-01T01:01:32.934Z,102372.47
2019-04-01T01:03:34.317Z,102378.33
2019-04-01T01:05:35.704Z,102374.87
2019-04-01T01:07:37.093Z,102368.05
2019-04-01T01:09:38.466Z,102371.91
2019-04-01T01:11:39.849Z,102376.61
2019-04-01T01:13:41.238Z,102375.36
2019-04-01T01:15:42.625Z,102374.50
2019-04-01T01:17:44.296Z,102372.96
2019-04-01T01:19:45.643Z,102369.37
2019-04-01T01:21:47.005Z,102368.89
2019-04-01T01:23:48.428Z,102370.34
2019-04-01T01:25:49.773Z,102369.13
2019-04-01T01:27:51.196Z,102372.30
2019-04-01T01:29:52.578Z,102374.44
2019-04-01T01:31:53.928Z,102373.61
2019-04-01T01:33:55.304Z,102369.31
2019-04-01T01:35:56.719Z,102372.82
2019-04-01T01:37:58.131Z,102374.94
2019-04-01T01:39:59.526Z,102375.33
2019-04-01T01:42:01.037Z,102383.50
2019-04-01T01:44:02.398Z,102377.43
2019-04-01T01:46:03.780Z,102386.87
2019-04-01T01:48:05.193Z,102383.17
2019-04-01T01:50:06.640Z,102383.83
2019-04-01T01:52:08.001Z,102384.89
2019-04-01T01:54:09.388Z,102385.29
2019-04-01T01:56:10.777Z,102387.00
2019-04-01T01:58:12.134Z,102377.88
2019-04-01T02:00:14.537Z,102381.47
2019-04-01T02:02:15.902Z,102381.27
2019-04-01T02:04:17.292Z,102385.77
2019-04-01T02:06:18.836Z,102386.27
2019-04-01T02:08:20.202Z,102390.79
2019-04-01T02:10:21.550Z,102387.58
2019-04-01T02:12:22.988Z,102386.78
2019-04-01T02:14:24.405Z,102385.06
2019-04-01T02:16:25.771Z,102390.45
2019-04-01T02:18:27.163Z,102398.20
2019-04-01T02:20:28.540Z,102392.91
2019-04-01T02:22:29.948Z,102392.91
2019-04-01T02:24:31.305Z,102393.44
2019-04-01T02:26:32.681Z,102398.01
2019-04-01T02:28:34.286Z,102397.20
2019-04-01T02:30:35.650Z,102398.02
2019-04-01T02:32:37.023Z,102394.44
2019-04-01T02:34:38.453Z,102392.76
2019-04-01T02:36:39.816Z,102397.09
2019-04-01T02:38:41.204Z,102401.45
2019-04-01T02:40:42.587Z,102395.73
2019-04-01T02:42:44.164Z,102400.38
2019-04-01T02:44:45.552Z,102395.80
2019-04-01T02:46:46.914Z,102403.68
2019-04-01T02:48:48.263Z,102401.70
2019-04-01T02:50:49.669Z,102404.62
2019-04-01T02:52:51.022Z,102399.36
2019-04-01T02:54:52.394Z,102402.22
2019-04-01T02:56:53.804Z,102405.77
2019-04-01T02:58:55.836Z,102409.25
2019-04-01T03:00:57.210Z,102411.02
2019-04-01T03:02:58.555Z,102399.82
2019-04-01T03:05:00.472Z,102401.25
2019-04-01T03:07:02.007Z,102403.67
2019-04-01T03:09:05.481Z,102405.61
2019-04-01T03:11:10.195Z,102404.23
2019-04-01T03:13:10.178Z,102404.30
2019-04-01T03:15:11.865Z,102405.75
2019-04-01T03:17:13.223Z,102403.20
2019-04-01T03:19:14.603Z,102400.03
2019-04-01T03:21:16.001Z,102394.17
2019-04-01T03:23:17.393Z,102398.71
2019-04-01T03:25:19.148Z,102400.83
2019-04-01T03:27:20.501Z,102403.31
2019-04-01T03:29:21.869Z,102403.92
2019-04-01T03:31:23.363Z,102401.78
2019-04-01T03:33:24.755Z,102398.19
2019-04-01T03:35:26.117Z,102408.91
2019-04-01T03:37:27.521Z,102411.73
2019-04-01T03:39:28.910Z,102407.47
2019-04-01T03:41:30.357Z,102404.24
2019-04-01T03:43:31.705Z,102404.66
2019-04-01T03:45:33.046Z,102405.20
2019-04-01T03:47:34.640Z,102400.83
2019-04-01T03:49:36.015Z,102408.36
2019-04-01T03:51:37.397Z,102410.45
2019-04-01T03:53:38.803Z,102404.64
2019-04-01T03:55:40.163Z,102408.40
2019-04-01T03:57:41.529Z,102411.69
2019-04-01T03:59:42.917Z,102404.19
2019-04-01T04:01:44.311Z,102410.72
2019-04-01T04:03:45.667Z,102407.56
2019-04-01T04:05:47.144Z,102418.52
2019-04-01T04:07:48.501Z,102414.48
2019-04-01T04:09:49.862Z,102414.13
2019-04-01T04:11:51.535Z,102419.72
2019-04-01T04:13:52.911Z,102412.16
2019-04-01T04:15:54.384Z,102412.75
2019-04-01T04:17:55.759Z,102422.25
2019-04-01T04:19:57.114Z,102421.27
2019-04-01T04:21:58.525Z,102416.05
2019-04-01T04:23:59.877Z,102419.63
2019-04-01T04:26:01.253Z,102419.34
2019-04-01T04:28:02.733Z,102423.98
2019-04-01T04:30:06.034Z,102421.36
2019-04-01T04:32:07.488Z,102418.80
2019-04-01T04:34:08.899Z,102420.53
2019-04-01T04:36:10.263Z,102419.97
2019-04-01T04:38:11.628Z,102424.80
2019-04-01T04:40:14.081Z,102414.33
2019-04-01T04:42:15.447Z,102421.77
2019-04-01T04:44:16.848Z,102425.30
2019-04-01T04:46:21.087Z,102428.68
2019-04-01T04:48:21.511Z,102425.34
2019-04-01T04:50:22.894Z,102424.20
2019-04-01T04:52:24.250Z,102422.03
2019-04-01T04:54:25.612Z,102423.57
2019-04-01T04:56:27.003Z,102423.50
2019-04-01T04:58:28.354Z,102426.34
2019-04-01T05:00:29.770Z,102429.64
2019-04-01T05:02:31.271Z,102426.46
2019-04-01T05:04:32.632Z,102431.66
2019-04-01T05:06:33.983Z,102435.40
2019-04-01T05:08:36.666Z,102434.05
2019-04-01T05:10:38.043Z,102435.62
2019-04-01T05:12:39.415Z,102439.98
2019-04-01T05:14:41.007Z,102438.62
2019-04-01T05:16:42.390Z,102442.94
2019-04-01T05:18:43.755Z,102448.41
2019-04-01T05:20:45.576Z,102451.74
2019-04-01T05:22:46.949Z,102456.44
2019-04-01T05:24:48.403Z,102455.64
2019-04-01T05:26:51.514Z,102456.62
2019-04-01T05:28:53.114Z,102456.73
2019-04-01T05:30:54.788Z,102455.24
2019-04-01T05:32:56.920Z,102461.97
2019-04-01T05:35:00.501Z,102456.86
2019-04-01T05:37:02.089Z,102458.00
2019-04-01T05:39:05.603Z,102457.98
2019-04-01T05:41:06.979Z,102459.05
2019-04-01T05:43:09.158Z,102459.14
2019-04-01T05:45:10.721Z,102459.37
2019-04-01T05:47:12.205Z,102461.55
2019-04-01T05:49:14.386Z,102459.78
2019-04-01T05:51:15.839Z,102457.50
2019-04-01T05:53:17.747Z,102458.84
2019-04-01T05:55:19.090Z,102463.73
2019-04-01T05:57:20.498Z,102463.53
2019-04-01T05:59:21.955Z,102468.13
2019-04-01T06:01:28.235Z,102463.07
2019-04-01T06:03:29.735Z,102469.45
2019-04-01T06:05:31.205Z,102464.96
2019-04-01T06:07:33.974Z,102464.34
2019-04-01T06:09:35.362Z,102457.42
2019-04-01T06:11:36.756Z,102465.39
2019-04-01T06:13:38.241Z,102458.27
2019-04-01T06:15:39.602Z,102466.01
2019-04-01T06:17:41.086Z,102459.88
2019-04-01T06:19:42.567Z,102459.59
2019-04-01T06:21:43.932Z,102467.45
2019-04-01T06:23:45.479Z,102463.53
2019-04-01T06:25:46.925Z,102461.55
2019-04-01T06:27:48.306Z,102462.30
2019-04-01T06:29:49.839Z,102460.16
2019-04-01T06:31:51.426Z,102461.97
2019-04-01T06:33:53.194Z,102464.34
2019-04-01T06:35:55.505Z,102466.98
2019-04-01T06:37:56.910Z,102467.55
2019-04-01T06:39:58.755Z,102467.66
2019-04-01T06:42:00.104Z,102473.41
2019-04-01T06:44:01.944Z,102468.47
2019-04-01T06:46:03.289Z,102475.50
2019-04-01T06:48:04.666Z,102473.34
2019-04-01T06:50:06.346Z,102472.98
2019-04-01T06:52:07.778Z,102475.77
2019-04-01T06:54:09.359Z,102477.14
2019-04-01T06:56:10.833Z,102477.63
2019-04-01T06:58:12.785Z,102475.91
2019-04-01T07:00:15.561Z,102473.33
2019-04-01T07:02:16.955Z,102474.73
2019-04-01T07:04:18.284Z,102473.98
2019-04-01T07:06:19.686Z,102470.20
2019-04-01T07:08:21.380Z,102470.27
2019-04-01T07:10:24.855Z,102471.54
2019-04-01T07:12:26.308Z,102475.09
2019-04-01T07:14:27.708Z,102472.42
2019-04-01T07:16:29.071Z,102472.81
2019-04-01T07:18:30.575Z,102475.52
2019-04-01T07:20:32.043Z,102473.99
2019-04-01T07:22:33.518Z,102476.49
2019-04-01T07:24:35.021Z,102475.54
2019-04-01T07:26:36.389Z,102472.02
2019-04-01T07:28:37.787Z,102479.02
2019-04-01T07:30:41.759Z,102471.50
2019-04-01T07:32:42.549Z,102475.56
2019-04-01T07:34:43.948Z,102473.92
2019-04-01T07:36:45.316Z,102478.94
2019-04-01T07:38:46.787Z,102479.27
2019-04-01T07:40:48.219Z,102479.34
2019-04-01T07:42:49.710Z,102475.41
2019-04-01T07:44:51.171Z,102472.52
2019-04-01T07:46:52.586Z,102475.03
2019-04-01T07:48:53.960Z,102473.41
2019-04-01T07:50:55.422Z,102479.91
2019-04-01T07:52:56.866Z,102476.96
2019-04-01T07:54:58.224Z,102476.07
2019-04-01T07:56:59.693Z,102479.87
2019-04-01T07:59:01.089Z,102479.28
2019-04-01T08:01:02.658Z,102479.97
2019-04-01T08:03:04.262Z,102483.84
2019-04-01T08:05:06.019Z,102479.12
2019-04-01T08:07:07.494Z,102481.30
2019-04-01T08:09:08.912Z,102480.50
2019-04-01T08:11:10.336Z,102476.97
2019-04-01T08:13:11.699Z,102468.97
2019-04-01T08:15:13.300Z,102471.09
2019-04-01T08:17:14.896Z,102470.31
2019-04-01T08:19:16.492Z,102475.34
2019-04-01T08:21:17.804Z,102465.39
2019-04-01T08:23:19.613Z,102462.52
2019-04-01T08:25:21.071Z,102469.25
2019-04-01T08:27:22.645Z,102463.54
2019-04-01T08:29:30.358Z,102465.77
2019-04-01T08:31:27.333Z,102455.44
2019-04-01T08:33:28.719Z,102459.72
2019-04-01T08:35:30.246Z,102456.80
2019-04-01T08:37:31.626Z,102458.36
2019-04-01T08:39:33.122Z,102462.58
2019-04-01T08:41:34.571Z,102459.12
2019-04-01T08:43:36.060Z,102462.10
2019-04-01T08:45:37.426Z,102459.70
2019-04-01T08:47:38.852Z,102458.56
2019-04-01T08:49:40.239Z,102458.48
2019-04-01T08:51:41.746Z,102451.08
2019-04-01T08:53:43.555Z,102452.52
2019-04-01T08:55:44.921Z,102449.67
2019-04-01T08:57:46.324Z,102447.47
2019-04-01T08:59:47.788Z,102450.94
2019-04-01T09:01:49.148Z,102452.14
2019-04-01T09:03:50.556Z,102451.77
2019-04-01T09:05:52.024Z,102443.58
2019-04-01T09:07:53.686Z,102445.95
2019-04-01T09:09:56.190Z,102444.05
2019-04-01T09:11:57.806Z,102436.61
2019-04-01T09:13:59.287Z,102440.40
2019-04-01T09:16:00.950Z,102437.58
2019-04-01T09:18:02.539Z,102430.33
2019-04-01T09:20:04.534Z,102433.27
2019-04-01T09:22:06.013Z,102424.20
2019-04-01T09:24:07.518Z,102418.23
2019-04-01T09:26:08.985Z,102419.02
2019-04-01T09:28:10.353Z,102410.25
2019-04-01T09:30:12.177Z,102417.89
2019-04-01T09:32:13.549Z,102417.45
2019-04-01T09:34:14.995Z,102414.39
2019-04-01T09:36:16.393Z,102410.97
2019-04-01T09:38:17.786Z,102407.09
2019-04-01T09:40:19.260Z,102408.06
2019-04-01T09:42:20.652Z,102403.63
2019-04-01T09:44:30.439Z,102404.16
2019-04-01T09:46:25.387Z,102403.34
2019-04-01T09:48:26.753Z,102400.92
2019-04-01T09:50:28.123Z,102398.39
2019-04-01T09:52:29.521Z,102400.29
2019-04-01T09:54:30.890Z,102395.58
2019-04-01T09:56:32.273Z,102391.87
2019-04-01T09:58:33.716Z,102390.27
2019-04-01T10:00:35.100Z,102383.87
2019-04-01T10:02:36.477Z,102384.03
2019-04-01T10:04:37.872Z,102370.61
2019-04-01T10:06:39.249Z,102371.44
2019-04-01T10:08:42.303Z,102365.70
2019-04-01T10:10:43.930Z,102366.54
2019-04-01T10:12:45.310Z,102362.18
2019-04-01T10:14:46.656Z,102356.19
2019-04-01T10:16:48.056Z,102361.64
2019-04-01T10:18:49.430Z,102357.86
2019-04-01T10:20:50.815Z,102364.57
2019-04-01T10:22:52.356Z,102356.42
2019-04-01T10:24:53.730Z,102352.98
2019-04-01T10:26:55.099Z,102348.14
2019-04-01T10:28:56.513Z,102341.78
2019-04-01T10:30:57.873Z,102347.33
2019-04-01T10:33:02.124Z,102354.01
2019-04-01T10:35:05.639Z,102344.09
2019-04-01T10:37:06.986Z,102338.23
2019-04-01T10:39:08.515Z,102338.20
2019-04-01T10:41:09.868Z,102335.50
2019-04-01T10:43:11.351Z,102332.56
2019-04-01T10:45:13.013Z,102335.55
2019-04-01T10:47:14.458Z,102335.05
2019-04-01T10:49:15.922Z,102328.45
2019-04-01T10:51:17.330Z,102326.59
2019-04-01T10:53:18.876Z,102315.16
2019-04-01T10:55:20.341Z,102312.35
2019-04-01T10:57:21.829Z,102311.97
2019-04-01T10:59:23.313Z,102308.23
2019-04-01T11:01:24.761Z,102310.41
2019-04-01T11:03:26.308Z,102305.95
2019-04-01T11:05:27.697Z,102302.03
2019-04-01T11:07:29.156Z,102298.05
2019-04-01T11:09:38.348Z,102301.22
2019-04-01T11:11:33.800Z,102297.62
2019-04-01T11:13:35.194Z,102298.14
2019-04-01T11:15:36.599Z,102290.33
2019-04-01T11:17:37.957Z,102286.36
2019-04-01T11:19:39.638Z,102284.20
2019-04-01T11:21:41.374Z,102285.71
2019-04-01T11:23:42.739Z,102274.06
2019-04-01T11:25:44.084Z,102285.66
2019-04-01T11:27:45.583Z,102282.16
2019-04-01T11:29:46.969Z,102282.17
2019-04-01T11:31:48.372Z,102277.92
2019-04-01T11:33:49.783Z,102270.03
2019-04-01T11:35:51.224Z,102272.12
2019-04-01T11:37:52.726Z,102264.83
2019-04-01T11:39:54.154Z,102259.27
2019-04-01T11:41:55.618Z,102254.34
2019-04-01T11:43:57.032Z,102254.51
2019-04-01T11:45:58.503Z,102254.48
2019-04-01T11:47:59.955Z,102252.56
2019-04-01T11:50:01.366Z,102248.13
2019-04-01T11:52:02.784Z,102249.26
2019-04-01T11:54:07.717Z,102246.46
2019-04-01T11:56:07.580Z,102238.89
2019-04-01T11:58:09.404Z,102236.01
2019-04-01T12:00:14.584Z,102234.58
2019-04-01T12:02:16.624Z,102230.25
2019-04-01T12:04:18.272Z,102226.06
2019-04-01T12:06:21.154Z,102222.44
2019-04-01T12:08:23.461Z,102220.00
2019-04-01T12:10:24.843Z,102210.76
2019-04-01T12:12:26.274Z,102209.16
2019-04-01T12:14:27.658Z,102211.16
2019-04-01T12:16:29.095Z,102212.64
2019-04-01T12:18:30.527Z,102207.53
2019-04-01T12:20:31.886Z,102203.90
2019-04-01T12:22:33.251Z,102199.42
2019-04-01T12:24:34.643Z,102194.39
2019-04-01T12:26:36.016Z,102187.11
2019-04-01T12:28:37.381Z,102183.27
2019-04-01T12:30:38.780Z,102183.88
2019-04-01T12:32:40.174Z,102178.44
2019-04-01T12:34:42.313Z,102176.98
2019-04-01T12:36:43.809Z,102183.66
2019-04-01T12:38:45.167Z,102174.60
2019-04-01T12:40:47.102Z,102174.91
2019-04-01T12:42:50.807Z,102165.22
2019-04-01T12:44:51.954Z,102160.70
2019-04-01T12:46:53.426Z,102154.89
2019-04-01T12:48:54.804Z,102160.08
2019-04-01T12:50:56.196Z,102155.02
2019-04-01T12:52:57.576Z,102163.27
2019-04-01T12:55:00.891Z,102156.34
2019-04-01T12:57:02.464Z,102156.42
2019-04-01T12:59:03.826Z,102150.96
2019-04-01T13:01:05.241Z,102141.73
2019-04-01T13:03:06.596Z,102137.09
2019-04-01T13:05:08.262Z,102135.48
2019-04-01T13:07:09.754Z,102127.34
2019-04-01T13:09:11.112Z,102133.30
2019-04-01T13:11:12.611Z,102129.97
2019-04-01T13:13:15.572Z,102126.54
2019-04-01T13:15:17.325Z,102117.08
2019-04-01T13:17:18.680Z,102117.39
2019-04-01T13:19:20.069Z,102115.78
2019-04-01T13:21:21.476Z,102112.19
2019-04-01T13:23:22.825Z,102113.27
2019-04-01T13:25:24.234Z,102109.59
2019-04-01T13:27:25.593Z,102095.00
2019-04-01T13:29:26.969Z,102100.55
2019-04-01T13:31:28.406Z,102094.73
2019-04-01T13:33:29.777Z,102096.27
2019-04-01T13:35:31.132Z,102097.08
2019-04-01T13:37:32.533Z,102088.80
2019-04-01T13:39:33.893Z,102084.63
2019-04-01T13:41:42.319Z,102088.10
2019-04-01T13:43:38.609Z,102081.40
2019-04-01T13:45:39.998Z,102085.02
2019-04-01T13:47:41.553Z,102073.68
2019-04-01T13:49:42.959Z,102066.27
2019-04-01T13:51:44.367Z,102067.64
2019-04-01T13:53:45.721Z,102058.76
2019-04-01T13:55:47.097Z,102056.22
2019-04-01T13:57:48.464Z,102057.06
2019-04-01T13:59:51.788Z,102054.77
2019-04-01T14:01:53.164Z,102048.75
2019-04-01T14:03:54.586Z,102048.17
2019-04-01T14:05:55.959Z,102050.61
2019-04-01T14:07:57.324Z,102039.36
2019-04-01T14:09:58.706Z,102038.87
2019-04-01T14:12:00.082Z,102036.53
2019-04-01T14:14:01.461Z,102031.65
2019-04-01T14:16:03.070Z,102035.75
2019-04-01T14:18:04.440Z,102034.00
2019-04-01T14:20:06.203Z,102021.52
2019-04-01T14:22:07.612Z,102016.43
2019-04-01T14:24:08.969Z,102016.58
2019-04-01T14:26:11.278Z,102008.62
2019-04-01T14:28:13.631Z,102004.66
2019-04-01T14:30:15.306Z,101999.91
2019-04-01T14:32:18.241Z,102002.38
2019-04-01T14:34:23.373Z,102000.47
2019-04-01T14:36:23.122Z,102005.34
2019-04-01T14:38:24.607Z,102004.29
2019-04-01T14:40:26.199Z,101998.69
2019-04-01T14:42:27.610Z,101991.55
2019-04-01T14:44:28.975Z,101988.35
2019-04-01T14:46:30.361Z,101982.84
2019-04-01T14:48:31.733Z,101980.70
2019-04-01T14:50:33.094Z,101973.81
2019-04-01T14:52:34.482Z,101975.38
2019-04-01T14:54:35.969Z,101976.04
2019-04-01T14:56:37.429Z,101971.38
2019-04-01T14:58:38.878Z,101971.19
2019-04-01T15:00:40.281Z,101966.38
2019-04-01T15:02:41.925Z,101960.61
2019-04-01T15:04:43.318Z,101960.41
2019-04-01T15:06:45.258Z,101955.85
2019-04-01T15:08:48.115Z,101956.86
2019-04-01T15:10:49.862Z,101950.04
2019-04-01T15:13:04.516Z,101949.50
2019-04-01T15:14:54.539Z,101946.28
2019-04-01T15:16:55.948Z,101937.89
2019-04-01T15:18:57.302Z,101940.70
2019-04-01T15:20:58.658Z,101938.41
2019-04-01T15:23:00.052Z,101929.45
2019-04-01T15:25:03.514Z,101927.72
2019-04-01T15:27:04.981Z,101924.75
2019-04-01T15:29:06.398Z,101919.38
2019-04-01T15:31:07.787Z,101917.78
2019-04-01T15:33:09.141Z,101913.87
2019-04-01T15:35:10.636Z,101906.78
2019-04-01T15:37:12.102Z,101899.92
2019-04-01T15:39:14.364Z,101893.28
2019-04-01T15:41:16.213Z,101897.26
2019-04-01T15:43:18.070Z,101899.92
2019-04-01T15:45:19.451Z,101896.17
2019-04-01T15:47:20.821Z,101895.99
2019-04-01T15:49:22.417Z,101894.14
2019-04-01T15:51:23.778Z,101885.86
2019-04-01T15:53:25.140Z,101884.34
2019-04-01T15:55:26.636Z,101891.20
2019-04-01T15:57:27.991Z,101887.08
2019-04-01T15:59:29.371Z,101887.14
2019-04-01T16:01:30.783Z,101879.32
2019-04-01T16:03:32.172Z,101870.83
2019-04-01T16:05:34.333Z,101875.92
2019-04-01T16:07:36.031Z,101873.47
2019-04-01T16:09:37.424Z,101869.31
2019-04-01T16:11:38.789Z,101870.11
2019-04-01T16:13:40.179Z,101868.81
2019-04-01T16:15:41.555Z,101865.55
2019-04-01T16:17:42.915Z,101860.27
2019-04-01T16:19:44.304Z,101858.19
2019-04-01T16:21:45.683Z,101856.69
2019-04-01T16:23:47.537Z,101845.80
2019-04-01T16:25:48.970Z,101852.09
2019-04-01T16:27:50.337Z,101854.45
2019-04-01T16:29:51.732Z,101848.77
2019-04-01T16:31:55.436Z,101853.43
2019-04-01T16:33:56.347Z,101847.39
2019-04-01T16:35:57.731Z,101847.70
2019-04-01T16:37:59.540Z,101850.55
2019-04-01T16:40:01.093Z,101848.50
2019-04-01T16:42:02.443Z,101845.09
2019-04-01T16:44:04.356Z,101840.73
2019-04-01T16:46:05.716Z,101844.28
2019-04-01T16:48:07.069Z,101851.87
2019-04-01T16:50:08.878Z,101849.45
2019-04-01T16:52:10.255Z,101852.08
2019-04-01T16:54:11.603Z,101845.27
2019-04-01T16:56:12.998Z,101849.48
2019-04-01T16:58:14.358Z,101850.17
2019-04-01T17:00:19.350Z,101850.58
2019-04-01T17:02:21.477Z,101854.67
2019-04-01T17:04:22.882Z,101855.37
2019-04-01T17:06:24.273Z,101854.59
2019-04-01T17:08:25.653Z,101854.67
2019-04-01T17:10:27.319Z,101854.26
2019-04-01T17:12:28.715Z,101850.09
2019-04-01T17:14:30.058Z,101855.73
2019-04-01T17:16:31.434Z,101849.96
2019-04-01T17:18:33.626Z,101852.95
2019-04-01T17:20:36.520Z,101853.27
2019-04-01T17:22:37.990Z,101855.37
2019-04-01T17:24:39.374Z,101857.68
2019-04-01T17:27:02.960Z,101859.64
2019-04-01T17:29:04.310Z,101858.78
2019-04-01T17:31:05.908Z,101863.91
2019-04-01T17:33:08.553Z,101868.30
2019-04-01T17:35:10.619Z,101867.20
2019-04-01T17:37:12.138Z,101867.93
2019-04-01T17:39:13.514Z,101872.20
2019-04-01T17:41:15.031Z,101869.08
2019-04-01T17:43:16.847Z,101872.80
2019-04-01T17:45:32.089Z,101868.50
2019-04-01T17:47:35.212Z,101867.95
2019-04-01T17:49:36.796Z,101876.28
2019-04-01T17:51:38.274Z,101874.26
2019-04-01T17:53:39.647Z,101873.75
2019-04-01T17:55:41.040Z,101875.32
2019-04-01T17:57:42.425Z,101874.22
2019-04-01T17:59:44.238Z,101875.24
2019-04-01T18:01:45.891Z,101876.15
2019-04-01T18:03:47.295Z,101874.08
2019-04-01T18:05:48.716Z,101879.42
2019-04-01T18:07:50.170Z,101872.99
2019-04-01T18:09:51.540Z,101874.83
2019-04-01T18:11:52.952Z,101874.02
2019-04-01T18:13:54.344Z,101874.67
2019-04-01T18:15:57.535Z,101877.70
2019-04-01T18:17:59.001Z,101877.96
2019-04-01T18:20:00.385Z,101874.96
2019-04-01T18:22:01.805Z,101879.64
2019-04-01T18:24:03.510Z,101883.92
2019-04-01T18:26:04.875Z,101885.52
2019-04-01T18:28:06.260Z,101885.41
2019-04-01T18:30:08.616Z,101883.34
2019-04-01T18:32:09.979Z,101887.14
2019-04-01T18:34:11.369Z,101892.41
2019-04-01T18:36:12.744Z,101892.97
2019-04-01T18:38:14.160Z,101888.08
2019-04-01T18:40:15.772Z,101890.55
2019-04-01T18:42:17.107Z,101888.02
2019-04-01T18:44:18.889Z,101894.76
2019-04-01T18:46:21.147Z,101893.42
2019-04-01T18:48:23.344Z,101893.08
2019-04-01T18:50:24.833Z,101902.52
2019-04-01T18:52:26.153Z,101898.27
2019-04-01T18:54:27.578Z,101902.95
2019-04-01T18:56:29.146Z,101898.95
2019-04-01T18:58:30.992Z,101900.94
2019-04-01T19:00:32.427Z,101897.27
2019-04-01T19:02:33.981Z,101897.80
2019-04-01T19:04:35.398Z,101894.55
2019-04-01T19:06:36.756Z,101900.19
2019-04-01T19:08:38.177Z,101899.40
2019-04-01T19:10:40.802Z,101896.31
2019-04-01T19:12:42.867Z,101899.20
2019-04-01T19:14:44.244Z,101899.69
2019-04-01T19:16:46.211Z,101899.80
2019-04-01T19:18:47.862Z,101899.75
2019-04-01T19:20:56.135Z,101904.23
2019-04-01T19:22:52.558Z,101900.67
2019-04-01T19:24:53.917Z,101896.16
2019-04-01T19:26:55.358Z,101904.98
2019-04-01T19:28:58.305Z,101902.10
2019-04-01T19:30:59.886Z,101906.89
2019-04-01T19:33:01.286Z,101901.36
2019-04-01T19:35:05.410Z,101901.00
2019-04-01T19:37:07.041Z,101897.94
2019-04-01T19:39:08.428Z,101899.16
2019-04-01T19:41:09.860Z,101895.88
2019-04-01T19:43:11.357Z,101895.05
2019-04-01T19:45:13.129Z,101887.34
2019-04-01T19:47:14.586Z,101891.40
2019-04-01T19:49:15.974Z,101891.13
2019-04-01T19:51:17.424Z,101889.78
2019-04-01T19:53:18.796Z,101894.27
2019-04-01T19:55:20.198Z,101892.97
2019-04-01T19:57:21.541Z,101900.19
2019-04-01T19:59:25.902Z,101891.81
2019-04-01T20:01:26.415Z,101893.14
2019-04-01T20:03:27.781Z,101892.09
2019-04-01T20:05:29.142Z,101892.38
2019-04-01T20:07:30.577Z,101888.25
2019-04-01T20:09:31.968Z,101885.44
2019-04-01T20:11:33.324Z,101892.02
2019-04-01T20:13:34.734Z,101884.91
2019-04-01T20:15:36.089Z,101882.33
2019-04-01T20:17:38.908Z,101885.69
2019-04-01T20:19:40.689Z,101880.41
2019-04-01T20:21:42.054Z,101878.28
2019-04-01T20:23:43.518Z,101880.53
2019-04-01T20:25:47.346Z,101874.07
2019-04-01T20:27:48.219Z,101873.30
2019-04-01T20:29:49.581Z,101875.75
2019-04-01T20:31:50.959Z,101867.58
2019-04-01T20:33:52.352Z,101867.82
2019-04-01T20:35:54.115Z,101864.18
2019-04-01T20:37:55.513Z,101866.02
2019-04-01T20:39:56.870Z,101865.08
2019-04-01T20:41:58.227Z,101861.52
2019-04-01T20:43:59.622Z,101857.27
2019-04-01T20:46:01.042Z,101852.91
2019-04-01T20:48:03.343Z,101853.45
2019-04-01T20:50:08.650Z,101857.47
2019-04-01T20:52:17.857Z,101854.03
2019-04-01T20:54:19.217Z,101848.06
2019-04-01T20:56:20.580Z,101843.66
2019-04-01T20:58:21.976Z,101846.39
2019-04-01T21:00:23.447Z,101839.98
2019-04-01T21:02:24.835Z,101842.34
2019-04-01T21:04:27.183Z,101837.48
2019-04-01T21:06:29.056Z,101835.92
2019-04-01T21:08:30.446Z,101840.53
2019-04-01T21:10:31.827Z,101838.17
2019-04-01T21:12:33.244Z,101834.86
2019-04-01T21:14:34.616Z,101833.29
2019-04-01T21:16:35.986Z,101837.66
2019-04-01T21:18:37.382Z,101832.47
2019-04-01T21:20:38.788Z,101831.85
2019-04-01T21:22:40.181Z,101830.52
2019-04-01T21:24:41.540Z,101833.63
2019-04-01T21:26:42.958Z,101833.72
2019-04-01T21:28:44.356Z,101828.14
2019-04-01T21:30:45.751Z,101823.60
2019-04-01T21:32:47.109Z,101821.28
2019-04-01T21:34:48.477Z,101817.85
2019-04-01T21:36:49.894Z,101813.91
2019-04-01T21:38:51.264Z,101817.17
2019-04-01T21:40:52.977Z,101814.56
2019-04-01T21:42:54.343Z,101810.58
2019-04-01T21:44:55.697Z,101808.20
2019-04-01T21:46:57.106Z,101809.17
2019-04-01T21:48:58.512Z,101812.70
2019-04-01T21:50:59.885Z,101809.47
2019-04-01T21:53:02.181Z,101811.52
2019-04-01T21:55:07.708Z,101802.02
2019-04-01T21:57:07.956Z,101799.47
2019-04-01T21:59:09.446Z,101798.98
2019-04-01T22:01:10.813Z,101798.98
2019-04-01T22:03:13.172Z,101794.70
2019-04-01T22:05:14.786Z,101796.46
2019-04-01T22:07:16.145Z,101789.18
2019-04-01T22:09:17.635Z,101789.58
2019-04-01T22:11:19.220Z,101786.59
2019-04-01T22:13:20.612Z,101781.90
2019-04-01T22:15:22.269Z,101784.78
2019-04-01T22:17:24.099Z,101781.83
2019-04-01T22:19:25.455Z,101777.12
2019-04-01T22:21:26.867Z,101783.45
2019-04-01T22:23:28.462Z,101778.77
2019-04-01T22:25:30.072Z,101775.02
2019-04-01T22:27:31.793Z,101771.88
2019-04-01T22:29:33.227Z,101762.91
2019-04-01T22:31:34.565Z,101772.66
2019-04-01T22:33:35.920Z,101769.05
2019-04-01T22:35:38.883Z,101767.01
2019-04-01T22:37:40.659Z,101766.70
2019-04-01T22:39:42.029Z,101758.23
2019-04-01T22:41:43.428Z,101755.43
2019-04-01T22:43:44.799Z,101759.82
2019-04-01T22:45:54.231Z,101757.45
2019-04-01T22:47:55.628Z,101760.66
2019-04-01T22:49:57.013Z,101757.14
2019-04-01T22:51:58.407Z,101753.88
2019-04-01T22:53:59.776Z,101754.49
2019-04-01T22:56:01.135Z,101752.21
2019-04-01T22:58:02.641Z,101749.61
2019-04-01T23:00:04.733Z,101744.25
2019-04-01T23:02:06.107Z,101742.88
2019-04-01T23:04:08.115Z,101739.92
2019-04-01T23:06:10.562Z,101749.52
2019-04-01T23:08:11.935Z,101743.84